Time;durP1;ratioP1;P1;durP2;ratioP2;P2;SDS_P1;SDS_P2;PMS_P1;PMS_P2;Temp;Humidity;BMP_temperature;BMP_pressure;BME280_temperature;BME280_humidity;BME280_pressure;Samples;Min_cycle;Max_cycle;Signal;HPM_P1;HPM_P2
2022/06/13 00:02:15;;;;;;;6.03;4.00;;;20.00;99.90;;;;;;6172119;23;20494;-87
2022/06/13 00:04:42;;;;;;;6.50;4.00;;;19.90;99.90;;;;;;6171740;23;20447;-87
2022/06/13 00:07:09;;;;;;;6.33;3.57;;;19.80;99.90;;;;;;6172571;23;20439;-86
2022/06/13 00:09:36;;;;;;;6.50;3.40;;;19.80;99.90;;;;;;6172377;23;20407;-86
2022/06/13 00:12:05;;;;;;;6.83;4.83;;;19.90;99.90;;;;;;6173143;23;20440;-87
2022/06/13 00:14:32;;;;;;;7.30;4.40;;;20.20;99.90;;;;;;6172658;23;20463;-86
2022/06/13 00:16:58;;;;;;;8.57;4.30;;;20.10;99.90;;;;;;6171703;23;20476;-86
2022/06/13 00:19:25;;;;;;;9.17;3.67;;;20.10;99.90;;;;;;6169936;23;20412;-87
2022/06/13 00:21:52;;;;;;;7.50;4.00;;;20.10;99.90;;;;;;6169435;23;20469;-86
2022/06/13 00:24:19;;;;;;;7.90;4.53;;;20.10;99.90;;;;;;6172650;23;20495;-87
2022/06/13 00:26:46;;;;;;;8.70;4.13;;;20.20;99.90;;;;;;6172463;23;20431;-86
2022/06/13 00:29:14;;;;;;;6.30;4.00;;;20.20;99.90;;;;;;6176057;23;20495;-84
2022/06/13 00:31:41;;;;;;;5.50;3.73;;;20.20;99.90;;;;;;6170001;23;20855;-85
2022/06/13 00:34:08;;;;;;;8.50;4.10;;;20.20;99.90;;;;;;6169513;23;20462;-87
2022/06/13 00:36:34;;;;;;;6.67;3.90;;;20.30;99.90;;;;;;6168401;23;20467;-86
2022/06/13 00:39:02;;;;;;;7.43;4.37;;;20.20;99.90;;;;;;6167916;23;20418;-85
2022/06/13 00:41:31;;;;;;;9.87;4.00;;;20.20;99.90;;;;;;6168250;23;20463;-86
2022/06/13 00:43:59;;;;;;;8.27;4.00;;;20.30;99.90;;;;;;6167829;23;20435;-86
2022/06/13 00:46:29;;;;;;;8.10;4.30;;;20.30;99.90;;;;;;6168133;23;20411;-86
2022/06/13 00:49:00;;;;;;;7.67;4.20;;;20.20;99.90;;;;;;6168348;23;20435;-86
2022/06/13 00:51:28;;;;;;;6.33;4.13;;;20.30;99.90;;;;;;6172226;23;20695;-85
2022/06/13 00:53:55;;;;;;;7.77;4.80;;;20.30;99.90;;;;;;6166032;23;20495;-85
2022/06/13 00:56:27;;;;;;;6.63;4.17;;;20.20;99.90;;;;;;6161543;23;20436;-86
2022/06/13 00:58:57;;;;;;;5.80;3.93;;;20.20;99.90;;;;;;6166433;23;20411;-85
2022/06/13 01:01:27;;;;;;;8.07;4.67;;;20.30;99.90;;;;;;6172285;23;20486;-86
2022/06/13 01:03:54;;;;;;;7.43;3.60;;;20.20;99.90;;;;;;6168888;23;20518;-86
2022/06/13 01:06:22;;;;;;;5.43;3.73;;;20.10;99.90;;;;;;6174957;23;20421;-83
2022/06/13 01:08:49;;;;;;;7.50;4.57;;;20.10;99.90;;;;;;6179602;23;20515;-87
2022/06/13 01:11:21;;;;;;;6.53;4.10;;;20.30;99.90;;;;;;6181010;23;20415;-85
2022/06/13 01:14:09;;;;;;;8.27;4.90;;;20.40;99.90;;;;;;6175805;23;20439;-85
2022/06/13 01:16:49;;;;;;;6.53;4.40;;;20.20;99.90;;;;;;6182604;23;20434;-86
2022/06/13 01:19:59;;;;;;;7.90;4.90;;;20.10;99.90;;;;;;6174479;23;20419;-85
2022/06/13 01:23:05;;;;;;;6.60;4.33;;;20.10;99.90;;;;;;6159564;23;20491;-86
2022/06/13 01:25:47;;;;;;;8.80;4.50;;;20.10;99.90;;;;;;6169557;23;20830;-85
2022/06/13 01:28:50;;;;;;;6.13;4.60;;;20.10;99.90;;;;;;6167509;23;20423;-86
2022/06/13 01:31:22;;;;;;;7.67;4.40;;;20.00;99.90;;;;;;6087722;23;20421;-86
2022/06/13 01:33:59;;;;;;;6.90;4.10;;;20.00;99.90;;;;;;6167932;23;20466;-86
2022/06/13 01:36:37;;;;;;;7.23;4.97;;;20.00;99.90;;;;;;6168414;23;20455;-86
2022/06/13 01:39:15;;;;;;;6.03;4.20;;;20.00;99.90;;;;;;6166584;23;20482;-85
2022/06/13 01:41:54;;;;;;;7.47;4.70;;;20.00;99.90;;;;;;6168266;23;20409;-85
2022/06/13 01:44:32;;;;;;;5.23;4.27;;;19.90;99.90;;;;;;6167614;23;20419;-86
2022/06/13 01:47:05;;;;;;;5.30;4.23;;;19.90;99.90;;;;;;6166604;23;20474;-86
2022/06/13 01:49:38;;;;;;;6.63;3.90;;;19.80;99.90;;;;;;6166737;23;20780;-86
2022/06/13 01:52:13;;;;;;;5.17;4.10;;;19.80;99.90;;;;;;6166893;23;20411;-85
2022/06/13 01:54:48;;;;;;;7.00;4.70;;;19.80;99.90;;;;;;6166430;23;20413;-86
2022/06/13 01:57:21;;;;;;;8.87;4.10;;;19.90;99.90;;;;;;6166076;23;20470;-86
2022/06/13 01:59:55;;;;;;;8.20;4.27;;;20.00;99.90;;;;;;6169104;23;20930;-83
2022/06/13 02:02:31;;;;;;;8.70;3.90;;;20.00;99.90;;;;;;6161364;23;20463;-85
2022/06/13 02:05:03;;;;;;;10.80;4.03;;;20.00;99.90;;;;;;6158657;23;20439;-84
2022/06/13 02:07:36;;;;;;;5.60;4.00;;;20.00;99.90;;;;;;6159766;23;20415;-84
2022/06/13 02:10:09;;;;;;;5.83;4.10;;;20.00;99.90;;;;;;6160077;23;20400;-84
2022/06/13 02:12:37;;;;;;;8.70;4.80;;;20.00;99.90;;;;;;6160357;23;20396;-85
2022/06/13 02:15:07;;;;;;;6.10;4.33;;;20.00;99.90;;;;;;6162648;23;20759;-86
2022/06/13 02:17:41;;;;;;;7.00;4.60;;;19.90;99.90;;;;;;6157509;23;20435;-85
2022/06/13 02:20:12;;;;;;;6.47;4.13;;;19.90;99.90;;;;;;6157868;23;20460;-85
2022/06/13 02:22:42;;;;;;;9.70;3.70;;;20.00;99.90;;;;;;6157073;23;20491;-85
2022/06/13 02:25:14;;;;;;;7.47;4.10;;;19.90;99.90;;;;;;6157703;23;20431;-85
2022/06/13 02:27:44;;;;;;;7.37;4.30;;;19.90;99.90;;;;;;6159762;23;20392;-85
2022/06/13 02:30:15;;;;;;;6.13;4.20;;;19.80;99.90;;;;;;6159563;23;20435;-86
2022/06/13 02:32:49;;;;;;;5.70;4.00;;;19.70;99.90;;;;;;6162680;23;20432;-86
2022/06/13 02:35:21;;;;;;;5.80;4.10;;;19.70;99.90;;;;;;6163235;23;20431;-87
2022/06/13 02:37:52;;;;;;;5.10;4.10;;;19.70;99.90;;;;;;6162880;23;20434;-86
2022/06/13 02:40:24;;;;;;;6.77;4.07;;;19.70;99.90;;;;;;6163544;23;20946;-86
2022/06/13 02:42:56;;;;;;;6.17;4.10;;;19.60;99.90;;;;;;6180419;23;20387;-86
2022/06/13 02:45:27;;;;;;;9.73;4.40;;;19.50;99.90;;;;;;6181042;23;20460;-87
2022/06/13 02:48:02;;;;;;;5.80;4.27;;;19.50;99.90;;;;;;6172494;23;20503;-87
2022/06/13 02:50:36;;;;;;;5.60;4.07;;;19.60;99.90;;;;;;6168955;23;20391;-86
2022/06/13 02:53:09;;;;;;;6.10;3.90;;;19.60;99.90;;;;;;6166710;23;20391;-85
2022/06/13 02:55:42;;;;;;;5.70;3.90;;;19.50;99.90;;;;;;6161413;23;20517;-85
2022/06/13 02:58:19;;;;;;;7.20;3.90;;;19.40;99.90;;;;;;6163724;23;20757;-84
2022/06/13 03:00:57;;;;;;;5.43;3.70;;;19.50;99.90;;;;;;6168301;23;20415;-86
2022/06/13 03:06:17;;;;;;;6.03;3.80;;;19.50;99.90;;;;;;5180759;22;20663;-85
2022/06/13 03:08:57;;;;;;;5.33;3.30;;;19.40;99.90;;;;;;5099878;28;20495;-85
2022/06/13 03:11:49;;;;;;;5.10;3.40;;;19.40;99.90;;;;;;5098957;28;20435;-86
2022/06/13 03:14:41;;;;;;;5.43;4.07;;;19.40;99.90;;;;;;5091855;28;20459;-86
2022/06/13 03:17:18;;;;;;;6.90;3.23;;;19.30;99.90;;;;;;5067040;28;20480;-87
2022/06/13 03:19:50;;;;;;;11.40;3.90;;;19.20;99.90;;;;;;5083166;28;20438;-85
2022/06/13 03:22:23;;;;;;;7.60;3.90;;;19.20;99.90;;;;;;5094030;28;20417;-86
2022/06/13 03:24:55;;;;;;;6.70;3.77;;;19.20;99.90;;;;;;5086663;28;20506;-87
2022/06/13 03:27:29;;;;;;;5.63;3.60;;;19.10;99.90;;;;;;5073127;28;20516;-87
2022/06/13 03:30:00;;;;;;;6.03;3.30;;;19.10;99.90;;;;;;5073976;28;20512;-87
2022/06/13 03:32:32;;;;;;;9.27;4.47;;;18.90;99.90;;;;;;5077643;28;20407;-87
2022/06/13 03:35:03;;;;;;;8.77;3.80;;;18.90;99.90;;;;;;5074238;28;20499;-87
2022/06/13 03:37:35;;;;;;;5.43;3.23;;;18.90;99.90;;;;;;5073041;28;20551;-87
2022/06/13 03:40:07;;;;;;;5.30;3.40;;;18.80;99.90;;;;;;5073669;28;20550;-87
2022/06/13 03:42:42;;;;;;;6.53;3.27;;;18.80;99.90;;;;;;5075368;28;20520;-87
2022/06/13 03:45:16;;;;;;;8.13;3.77;;;18.80;99.90;;;;;;5077959;28;20487;-87
2022/06/13 03:47:48;;;;;;;5.60;3.40;;;18.80;99.90;;;;;;5078041;28;20417;-85
2022/06/13 03:50:19;;;;;;;7.43;3.37;;;18.80;99.90;;;;;;5079775;28;20922;-87
2022/06/13 03:52:51;;;;;;;8.90;3.90;;;18.80;99.90;;;;;;5074193;28;20818;-87
2022/06/13 03:55:23;;;;;;;5.30;3.53;;;18.70;99.90;;;;;;5082624;28;20508;-85
2022/06/13 03:57:54;;;;;;;5.87;3.17;;;18.70;99.90;;;;;;5081764;28;20436;-87
2022/06/13 04:00:25;;;;;;;6.80;3.07;;;18.60;99.90;;;;;;5075286;28;20496;-86
2022/06/13 04:02:54;;;;;;;7.43;3.43;;;18.70;99.90;;;;;;5074374;28;20447;-87
2022/06/13 04:05:26;;;;;;;12.07;3.97;;;18.60;99.90;;;;;;5073441;28;20587;-86
2022/06/13 04:07:54;;;;;;;7.07;3.07;;;18.60;99.90;;;;;;5074179;28;20445;-87
2022/06/13 04:10:23;;;;;;;6.27;2.93;;;18.60;99.90;;;;;;5074763;28;20448;-87
2022/06/13 04:13:18;;;;;;;8.10;3.67;;;18.50;99.90;;;;;;5073295;28;20451;-87
2022/06/13 04:15:56;;;;;;;9.63;3.70;;;18.70;99.90;;;;;;5070071;28;20512;-86
2022/06/13 04:18:35;;;;;;;8.10;3.93;;;18.70;99.90;;;;;;5067148;28;20462;-87
2022/06/13 04:21:11;;;;;;;10.60;3.87;;;18.70;99.90;;;;;;5064724;28;20487;-87
2022/06/13 04:23:48;;;;;;;8.37;3.37;;;18.70;99.90;;;;;;5077216;28;20421;-85
2022/06/13 04:26:20;;;;;;;9.20;4.00;;;18.60;99.90;;;;;;5070722;28;20547;-86
2022/06/13 04:28:54;;;;;;;9.47;3.60;;;18.60;99.90;;;;;;5059532;28;20516;-86
2022/06/13 04:31:23;;;;;;;9.93;3.03;;;18.30;99.90;;;;;;5061174;28;20412;-86
2022/06/13 04:33:55;;;;;;;9.13;3.27;;;18.70;99.90;;;;;;5060672;28;20445;-87
2022/06/13 04:36:24;;;;;;;6.00;3.50;;;18.70;99.90;;;;;;5060182;28;20473;-86
2022/06/13 04:38:55;;;;;;;12.87;3.73;;;18.50;99.90;;;;;;5060669;28;20507;-87
2022/06/13 04:41:27;;;;;;;6.90;3.73;;;18.80;99.90;;;;;;5065243;28;20521;-86
2022/06/13 04:43:57;;;;;;;6.90;3.53;;;18.60;99.90;;;;;;5063904;28;20451;-86
2022/06/13 04:46:27;;;;;;;7.20;3.40;;;18.60;99.90;;;;;;5061103;28;20993;-86
2022/06/13 04:48:57;;;;;;;9.43;3.63;;;18.50;99.90;;;;;;5061858;28;20468;-87
2022/06/13 04:51:27;;;;;;;9.40;3.50;;;18.60;99.90;;;;;;5060863;28;20461;-87
2022/06/13 04:54:02;;;;;;;11.20;4.07;;;18.50;99.90;;;;;;5064949;28;20445;-87
2022/06/13 04:56:29;;;;;;;5.80;3.20;;;18.40;99.90;;;;;;5061614;28;20525;-87
2022/06/13 04:58:58;;;;;;;6.67;3.10;;;18.50;99.90;;;;;;5059048;28;20839;-87
2022/06/13 05:01:28;;;;;;;10.63;3.63;;;18.70;99.90;;;;;;5063302;28;20934;-87
2022/06/13 05:03:56;;;;;;;13.10;4.50;;;18.60;99.90;;;;;;5059373;28;20560;-86
2022/06/13 05:06:30;;;;;;;8.50;3.23;;;18.50;99.90;;;;;;5058597;28;20889;-87
2022/06/13 05:09:02;;;;;;;11.57;3.73;;;18.60;99.90;;;;;;5059362;28;20499;-87
2022/06/13 05:11:36;;;;;;;7.37;3.70;;;18.70;99.90;;;;;;5061068;28;20771;-86
2022/06/13 05:14:08;;;;;;;8.30;3.90;;;18.60;99.90;;;;;;5066719;28;20445;-86
2022/06/13 05:16:55;;;;;;;8.63;3.30;;;18.40;99.90;;;;;;5062075;28;20460;-87
2022/06/13 05:19:47;;;;;;;7.83;3.30;;;18.40;99.90;;;;;;5062424;28;20440;-87
2022/06/13 05:22:28;;;;;;;5.80;3.07;;;18.40;99.90;;;;;;5059795;28;20898;-86
2022/06/13 05:25:28;;;;;;;8.93;4.20;;;18.50;99.90;;;;;;5065852;28;20491;-84
2022/06/13 05:27:55;;;;;;;10.53;3.47;;;18.60;99.90;;;;;;5073690;28;20473;-87
2022/06/13 05:30:23;;;;;;;6.97;3.67;;;18.70;99.90;;;;;;5059417;28;20433;-86
2022/06/13 05:32:50;;;;;;;9.83;4.03;;;18.70;99.90;;;;;;5072428;28;20434;-86
2022/06/13 05:35:28;;;;;;;8.63;3.60;;;18.70;99.90;;;;;;5062802;28;20481;-86
2022/06/13 05:37:57;;;;;;;7.87;3.60;;;18.80;99.90;;;;;;5060669;28;20435;-86
2022/06/13 05:40:25;;;;;;;8.47;3.90;;;18.90;99.90;;;;;;5057265;28;20449;-86
2022/06/13 05:42:52;;;;;;;7.00;3.60;;;18.80;99.90;;;;;;5058462;28;20439;-86
2022/06/13 05:45:23;;;;;;;6.97;4.03;;;18.80;99.90;;;;;;5057081;28;20526;-86
2022/06/13 05:47:53;;;;;;;10.47;4.27;;;18.80;99.90;;;;;;5056620;28;20433;-87
2022/06/13 05:50:22;;;;;;;7.67;3.47;;;18.90;99.90;;;;;;5055801;28;20453;-87
2022/06/13 05:52:49;;;;;;;9.67;4.20;;;18.90;99.90;;;;;;5056981;28;20462;-86
2022/06/13 05:55:16;;;;;;;9.17;3.97;;;18.90;99.90;;;;;;5057502;28;20556;-86
2022/06/13 05:57:45;;;;;;;11.20;4.10;;;18.90;99.90;;;;;;5058415;28;20555;-86
2022/06/13 06:00:17;;;;;;;9.40;4.10;;;18.90;99.90;;;;;;5061360;28;20463;-86
2022/06/13 06:02:44;;;;;;;6.67;4.03;;;19.00;99.90;;;;;;5057347;28;20448;-86
2022/06/13 06:05:14;;;;;;;8.83;4.10;;;19.00;99.90;;;;;;5056284;28;20521;-87
2022/06/13 06:07:43;;;;;;;8.33;3.93;;;19.10;99.90;;;;;;5056585;28;20493;-87
2022/06/13 06:10:20;;;;;;;10.77;3.90;;;19.10;99.90;;;;;;5055478;28;20452;-87
2022/06/13 06:12:49;;;;;;;7.73;4.33;;;19.00;99.90;;;;;;5056044;28;20433;-86
2022/06/13 06:15:16;;;;;;;6.90;3.50;;;19.10;99.90;;;;;;5057085;28;20533;-87
2022/06/13 06:17:45;;;;;;;6.30;3.83;;;19.20;99.90;;;;;;5059419;28;20489;-86
2022/06/13 06:20:18;;;;;;;8.77;3.60;;;19.10;99.90;;;;;;5059534;28;20473;-87
2022/06/13 06:22:45;;;;;;;8.57;3.70;;;19.10;99.90;;;;;;5058515;28;20481;-86
2022/06/13 06:25:12;;;;;;;6.40;3.07;;;19.10;99.90;;;;;;5059142;28;20550;-86
2022/06/13 06:27:39;;;;;;;9.33;3.63;;;18.90;99.90;;;;;;5067037;28;20453;-87
2022/06/13 06:30:09;;;;;;;6.30;3.47;;;18.70;99.90;;;;;;5075580;28;20525;-86
2022/06/13 06:32:36;;;;;;;7.53;3.53;;;18.70;99.90;;;;;;5062306;28;20480;-86
2022/06/13 06:35:04;;;;;;;11.40;3.70;;;18.70;99.90;;;;;;5063976;28;20473;-87
2022/06/13 06:37:31;;;;;;;6.50;3.47;;;18.70;99.90;;;;;;5059307;28;20998;-85
2022/06/13 06:39:59;;;;;;;9.87;2.93;;;18.90;99.90;;;;;;5058474;28;20453;-87
2022/06/13 06:42:25;;;;;;;8.23;3.40;;;18.90;99.90;;;;;;5059644;28;20464;-87
2022/06/13 06:44:52;;;;;;;10.60;4.20;;;18.70;99.90;;;;;;5057435;28;20937;-87
2022/06/13 06:47:20;;;;;;;7.90;3.03;;;18.80;99.90;;;;;;5060479;28;20495;-87
2022/06/13 06:49:48;;;;;;;5.37;3.03;;;19.00;99.90;;;;;;5061336;28;20457;-86
2022/06/13 06:52:15;;;;;;;4.67;2.17;;;19.20;99.90;;;;;;5061815;28;20477;-85
2022/06/13 07:00:12;;;;;;;9.20;3.73;;;19.00;99.90;;;;;;5070026;28;20463;-86
2022/06/13 07:02:40;;;;;;;7.30;3.13;;;18.90;99.90;;;;;;5069616;28;20450;-87
2022/06/13 07:05:08;;;;;;;10.30;3.47;;;19.10;99.90;;;;;;5070907;28;20476;-86
2022/06/13 07:07:35;;;;;;;8.70;3.13;;;19.00;99.90;;;;;;5066802;28;20456;-86
2022/06/13 07:10:02;;;;;;;9.77;4.30;;;19.10;99.90;;;;;;5062618;28;20544;-86
2022/06/13 07:12:29;;;;;;;7.10;3.07;;;19.10;99.90;;;;;;5067136;28;20441;-86
2022/06/13 07:14:56;;;;;;;10.00;3.00;;;18.90;99.90;;;;;;5068991;28;20457;-86
2022/06/13 07:17:25;;;;;;;4.93;2.77;;;19.00;99.90;;;;;;5075236;28;20554;-86
2022/06/13 07:19:54;;;;;;;6.13;3.53;;;19.20;99.90;;;;;;5063317;28;20514;-86
2022/06/13 07:22:25;;;;;;;9.70;3.60;;;19.30;99.90;;;;;;5065185;28;20640;-85
2022/06/13 07:24:52;;;;;;;5.87;3.20;;;19.40;99.90;;;;;;5063090;28;20500;-86
2022/06/13 07:27:19;;;;;;;6.97;3.20;;;19.50;99.90;;;;;;5066734;28;20499;-85
2022/06/13 07:29:46;;;;;;;6.70;3.10;;;19.40;99.90;;;;;;5064504;28;20445;-85
2022/06/13 07:32:16;;;;;;;10.43;3.87;;;19.20;99.90;;;;;;5064981;28;20476;-87
2022/06/13 07:34:45;;;;;;;8.13;3.63;;;19.00;99.90;;;;;;5064498;28;20508;-86
2022/06/13 07:38:16;;;;;;;6.90;2.83;;;19.00;99.90;;;;;;5063964;28;20442;-85
2022/06/13 07:40:05;;;;;;;8.20;3.40;;;19.10;99.90;;;;;;5066120;28;20449;-85
2022/06/13 07:42:36;;;;;;;8.10;3.30;;;19.00;99.90;;;;;;5066789;28;20548;-85
2022/06/13 07:45:04;;;;;;;7.73;3.90;;;19.00;99.90;;;;;;5066123;28;21028;-86
2022/06/13 07:47:31;;;;;;;7.20;3.13;;;19.20;99.90;;;;;;5066443;28;20437;-86
2022/06/13 07:49:58;;;;;;;9.50;3.53;;;19.50;99.90;;;;;;5062807;28;20966;-86
2022/06/13 07:52:27;;;;;;;6.00;3.20;;;19.70;99.90;;;;;;5065055;28;20472;-86
2022/06/13 07:54:54;;;;;;;6.50;3.10;;;19.60;99.90;;;;;;5066006;28;20485;-86
2022/06/13 07:57:21;;;;;;;7.70;3.67;;;19.60;99.90;;;;;;5067210;28;20520;-86
2022/06/13 07:59:48;;;;;;;11.50;4.10;;;19.70;99.90;;;;;;5066677;28;20479;-87
2022/06/13 08:02:17;;;;;;;8.93;3.60;;;19.90;99.90;;;;;;5078394;28;20448;-85
2022/06/13 08:04:43;;;;;;;9.30;3.90;;;20.20;99.90;;;;;;5077350;28;20449;-86
2022/06/13 08:07:11;;;;;;;7.70;3.93;;;20.40;99.90;;;;;;5060751;28;20488;-86
2022/06/13 08:09:39;;;;;;;10.10;4.20;;;20.40;99.90;;;;;;5062919;28;20488;-87
2022/06/13 08:12:10;;;;;;;7.77;3.53;;;20.20;99.90;;;;;;5063448;28;20988;-86
2022/06/13 08:14:37;;;;;;;6.63;3.30;;;20.30;99.90;;;;;;5062923;28;20456;-87
2022/06/13 08:17:06;;;;;;;8.90;3.63;;;20.30;99.90;;;;;;5061037;28;20972;-87
2022/06/13 08:19:33;;;;;;;7.80;3.50;;;20.40;99.90;;;;;;5065067;28;20714;-87
2022/06/13 08:21:59;;;;;;;9.17;3.60;;;20.60;99.70;;;;;;5070254;28;20434;-87
2022/06/13 08:24:26;;;;;;;5.70;3.10;;;20.40;99.90;;;;;;5065906;28;20513;-87
2022/06/13 08:26:55;;;;;;;11.63;3.30;;;20.40;99.90;;;;;;5064377;28;20491;-87
2022/06/13 08:29:21;;;;;;;6.60;3.13;;;20.40;99.90;;;;;;5066925;28;20453;-87
2022/06/13 08:31:49;;;;;;;5.80;3.17;;;20.40;99.60;;;;;;5062462;28;20445;-87
2022/06/13 08:34:15;;;;;;;6.10;2.70;;;20.40;99.80;;;;;;5062819;28;20457;-87
2022/06/13 08:36:42;;;;;;;7.53;3.07;;;20.50;98.50;;;;;;5063718;28;20575;-87
2022/06/13 08:39:09;;;;;;;7.70;3.93;;;20.50;99.10;;;;;;5070981;28;20463;-87
2022/06/13 08:41:45;;;;;;;7.57;3.03;;;20.60;99.00;;;;;;5063293;28;20476;-88
2022/06/13 08:44:34;;;;;;;9.07;3.40;;;20.70;98.80;;;;;;5061954;28;20912;-86
2022/06/13 08:47:07;;;;;;;9.20;3.33;;;21.00;98.30;;;;;;5061731;28;20465;-87
2022/06/13 08:49:41;;;;;;;7.43;4.00;;;21.00;98.50;;;;;;5063472;28;20438;-87
2022/06/13 08:52:26;;;;;;;8.67;3.87;;;20.70;99.10;;;;;;5063985;28;20437;-87
2022/06/13 08:55:02;;;;;;;8.47;4.47;;;20.50;99.70;;;;;;5061127;28;20934;-87
2022/06/13 08:57:33;;;;;;;11.87;4.10;;;20.50;99.90;;;;;;5064061;28;20464;-87
2022/06/13 09:00:08;;;;;;;9.23;3.60;;;20.60;99.90;;;;;;5075493;28;20426;-88
2022/06/13 09:02:41;;;;;;;7.23;3.87;;;20.50;99.90;;;;;;5065640;28;20524;-88
2022/06/13 09:05:12;;;;;;;6.30;4.23;;;20.40;99.20;;;;;;5088298;22;20599;-85
2022/06/13 09:07:53;;;;;;;8.23;5.03;;;20.50;99.30;;;;;;5097856;28;20471;-88
2022/06/13 09:10:26;;;;;;;4.83;2.60;;;20.40;99.00;;;;;;5089321;28;20817;-86
2022/06/13 09:13:00;;;;;;;7.87;3.70;;;20.60;99.10;;;;;;5086073;28;20444;-86
2022/06/13 09:15:32;;;;;;;6.77;3.90;;;20.80;98.80;;;;;;5082399;28;20476;-88
2022/06/13 09:18:11;;;;;;;8.00;5.00;;;21.00;98.00;;;;;;5082387;28;20451;-88
2022/06/13 09:20:46;;;;;;;8.53;3.73;;;20.70;98.40;;;;;;5082276;28;20448;-88
2022/06/13 09:23:22;;;;;;;8.67;3.97;;;20.80;98.80;;;;;;5095912;28;20408;-87
2022/06/13 09:25:55;;;;;;;12.40;3.90;;;21.00;98.20;;;;;;5096083;28;20482;-87
2022/06/13 09:28:27;;;;;;;10.23;4.13;;;21.10;98.00;;;;;;5097274;28;20464;-88
2022/06/13 09:31:00;;;;;;;9.90;3.67;;;21.20;97.40;;;;;;5092344;28;20447;-88
2022/06/13 09:33:31;;;;;;;8.53;3.63;;;21.40;96.30;;;;;;5083667;28;20460;-87
2022/06/13 09:36:01;;;;;;;5.97;3.27;;;21.60;95.10;;;;;;5082061;28;20506;-87
2022/06/13 09:38:35;;;;;;;10.00;3.67;;;21.60;95.30;;;;;;5084499;28;20541;-86
2022/06/13 09:41:27;;;;;;;10.23;3.33;;;21.40;93.80;;;;;;5081817;28;20479;-88
2022/06/13 09:44:05;;;;;;;12.43;3.20;;;21.40;93.10;;;;;;5081979;28;20451;-87
2022/06/13 09:46:42;;;;;;;10.93;3.07;;;21.60;92.60;;;;;;5081730;28;20518;-87
2022/06/13 09:49:17;;;;;;;8.23;3.43;;;21.70;92.40;;;;;;5084483;28;20443;-88
2022/06/13 09:51:56;;;;;;;5.57;2.80;;;21.50;91.80;;;;;;5083427;28;20444;-91
2022/06/13 09:54:31;;;;;;;8.13;3.00;;;21.10;91.80;;;;;;5091679;28;20416;-88
2022/06/13 09:57:10;;;;;;;6.80;3.10;;;20.90;92.20;;;;;;5080643;28;20579;-86
2022/06/13 09:59:58;;;;;;;9.00;3.70;;;21.10;92.70;;;;;;5079555;28;20489;-89
2022/06/13 10:02:35;;;;;;;7.23;3.20;;;21.30;93.10;;;;;;5079255;28;20482;-87
2022/06/13 10:05:09;;;;;;;7.50;3.50;;;21.50;93.30;;;;;;5080593;28;20448;-87
2022/06/13 10:07:43;;;;;;;6.70;3.00;;;21.50;93.10;;;;;;5087766;28;20474;-86
2022/06/13 10:10:16;;;;;;;5.43;2.37;;;21.30;92.90;;;;;;5086522;28;20471;-89
2022/06/13 10:12:54;;;;;;;7.60;2.83;;;21.10;92.40;;;;;;5087908;28;20449;-88
2022/06/13 10:15:37;;;;;;;9.57;3.70;;;21.20;93.70;;;;;;5080107;28;20502;-89
2022/06/13 10:18:20;;;;;;;14.70;6.83;;;21.50;92.10;;;;;;5082277;28;20412;-88
2022/06/13 10:20:58;;;;;;;9.03;4.50;;;21.70;91.50;;;;;;5081500;28;20433;-89
2022/06/13 10:23:41;;;;;;;6.80;3.20;;;21.90;91.10;;;;;;5087390;28;20437;-89
2022/06/13 10:26:20;;;;;;;5.10;2.77;;;22.00;90.90;;;;;;5086530;28;20468;-88
2022/06/13 10:29:22;;;;;;;8.60;3.03;;;21.90;89.80;;;;;;5090720;28;20444;-88
2022/06/13 10:32:03;;;;;;;14.07;3.70;;;21.60;91.10;;;;;;5070379;28;20493;-88
2022/06/13 10:34:51;;;;;;;10.00;3.30;;;21.40;90.60;;;;;;5081941;28;20451;-86
2022/06/13 10:37:22;;;;;;;7.13;3.10;;;21.10;91.20;;;;;;5082789;28;20470;-86
2022/06/13 10:39:51;;;;;;;5.80;3.03;;;21.30;89.60;;;;;;5096790;28;20447;-88
2022/06/13 10:42:22;;;;;;;6.80;3.70;;;21.50;89.90;;;;;;5095496;28;20482;-87
2022/06/13 10:44:50;;;;;;;7.10;3.30;;;21.60;90.20;;;;;;5080319;28;20509;-88
2022/06/13 10:47:24;;;;;;;5.70;2.73;;;21.90;86.30;;;;;;5080984;28;20620;-87
2022/06/13 10:49:58;;;;;;;5.83;2.80;;;21.90;85.60;;;;;;5081528;28;20514;-88
2022/06/13 10:52:31;;;;;;;4.87;2.57;;;22.20;84.90;;;;;;5082537;28;20540;-88
2022/06/13 10:55:03;;;;;;;5.70;3.03;;;22.30;85.40;;;;;;5080831;28;20441;-88
2022/06/13 10:57:34;;;;;;;9.03;2.30;;;22.30;84.00;;;;;;5077131;28;20437;-87
2022/06/13 11:00:29;;;;;;;4.70;2.60;;;22.00;84.50;;;;;;5078057;28;20481;-88
2022/06/13 11:03:15;;;;;;;10.07;3.80;;;22.00;85.10;;;;;;5076908;28;20444;-88
2022/06/13 11:05:56;;;;;;;8.57;2.80;;;22.10;86.10;;;;;;5077739;28;20494;-89
2022/06/13 11:08:24;;;;;;;6.10;2.93;;;22.10;85.00;;;;;;5077758;28;20472;-88
2022/06/13 11:10:58;;;;;;;7.70;3.40;;;22.20;84.90;;;;;;5078866;28;20444;-88
2022/06/13 11:13:29;;;;;;;5.80;3.30;;;22.20;83.00;;;;;;5083844;28;20452;-87
2022/06/13 11:24:34;;;;;;;13.50;3.50;;;23.10;82.70;;;;;;5077796;28;20419;-89
2022/06/13 11:29:47;;;;;;;12.37;4.50;;;23.30;81.80;;;;;;5081528;28;20538;-89
2022/06/13 11:32:25;;;;;;;4.30;2.70;;;23.40;80.50;;;;;;5081916;28;20510;-88
2022/06/13 11:34:52;;;;;;;9.50;4.47;;;23.00;79.80;;;;;;5082403;28;20448;-88
2022/06/13 11:37:23;;;;;;;5.20;3.27;;;22.90;81.50;;;;;;5086306;28;20557;-88
2022/06/13 11:39:52;;;;;;;7.40;3.53;;;22.80;81.80;;;;;;5100334;28;20467;-88
2022/06/13 11:42:25;;;;;;;6.90;3.63;;;22.80;81.60;;;;;;5100338;28;20459;-89
2022/06/13 11:44:55;;;;;;;9.83;3.90;;;22.90;80.90;;;;;;5094287;28;20488;-88
2022/06/13 11:47:22;;;;;;;6.87;3.70;;;22.90;79.70;;;;;;5091394;28;20495;-87
2022/06/13 11:49:55;;;;;;;9.20;3.30;;;22.80;80.60;;;;;;5086632;28;20539;-87
2022/06/13 11:55:25;;;;;;;6.00;3.57;;;22.70;79.00;;;;;;5083546;28;20621;-89
2022/06/13 11:57:56;;;;;;;5.80;3.23;;;23.00;78.30;;;;;;5097946;28;20428;-86
2022/06/13 12:00:28;;;;;;;10.90;3.53;;;23.00;79.20;;;;;;5099539;28;20455;-88
2022/06/13 12:03:05;;;;;;;5.40;2.70;;;22.90;81.20;;;;;;5086891;28;20412;-87
2022/06/13 12:05:34;;;;;;;7.63;2.80;;;22.90;81.80;;;;;;5083614;28;20533;-89
2022/06/13 12:08:05;;;;;;;6.53;2.77;;;22.90;80.30;;;;;;5096807;28;20468;-87
2022/06/13 12:10:37;;;;;;;5.33;3.10;;;23.00;80.40;;;;;;5098896;28;20431;-88
2022/06/13 12:13:09;;;;;;;4.87;2.73;;;23.10;80.60;;;;;;5082390;28;20863;-88
2022/06/13 12:15:41;;;;;;;13.43;3.70;;;23.20;77.50;;;;;;5079939;28;20510;-89
2022/06/13 12:18:18;;;;;;;8.40;2.97;;;23.20;74.80;;;;;;5079223;28;20501;-88
2022/06/13 12:20:50;;;;;;;6.60;2.57;;;23.30;73.20;;;;;;5078922;28;20431;-88
2022/06/13 12:23:28;;;;;;;5.40;2.50;;;23.30;72.60;;;;;;5080275;28;20448;-88
2022/06/13 12:26:05;;;;;;;9.80;3.70;;;23.30;73.20;;;;;;5093962;28;20501;-88
2022/06/13 12:28:42;;;;;;;6.07;2.57;;;23.60;73.80;;;;;;5088720;28;20460;-87
2022/06/13 12:31:18;;;;;;;5.20;2.57;;;23.80;74.20;;;;;;5099317;28;20614;-86
2022/06/13 12:33:58;;;;;;;4.90;2.50;;;23.80;73.00;;;;;;5099216;28;20531;-88
2022/06/13 12:36:43;;;;;;;5.13;2.80;;;23.60;72.00;;;;;;5081170;28;20487;-87
2022/06/13 12:39:32;;;;;;;8.50;3.27;;;23.70;72.30;;;;;;5078688;28;20463;-88
2022/06/13 12:42:10;;;;;;;5.83;2.40;;;23.80;70.70;;;;;;5078588;28;20476;-88
2022/06/13 12:45:22;;;;;;;4.73;2.37;;;23.90;68.00;;;;;;5078069;28;20421;-88
2022/06/13 12:48:04;;;;;;;7.80;2.70;;;23.90;67.40;;;;;;5049941;28;20488;-88
2022/06/13 12:50:47;;;;;;;8.67;3.50;;;24.00;68.90;;;;;;5078785;28;20511;-89
2022/06/13 12:53:41;;;;;;;5.07;2.40;;;24.30;67.10;;;;;;5079361;28;20435;-88
2022/06/13 12:56:22;;;;;;;5.13;2.53;;;24.30;65.60;;;;;;5080065;28;20537;-88
2022/06/13 12:59:02;;;;;;;8.33;2.70;;;24.40;67.20;;;;;;5081761;28;20443;-87
2022/06/13 13:01:35;;;;;;;7.33;2.60;;;24.20;67.30;;;;;;5080184;28;20459;-88
2022/06/13 13:04:24;;;;;;;5.20;2.83;;;23.80;69.10;;;;;;5083169;28;20878;-88
2022/06/13 13:07:00;;;;;;;10.37;3.67;;;23.60;70.00;;;;;;5083022;28;20985;-88
2022/06/13 13:09:48;;;;;;;4.60;2.30;;;23.70;69.70;;;;;;5080411;28;20794;-89
2022/06/13 13:12:41;;;;;;;5.87;2.70;;;23.90;68.60;;;;;;5079509;28;20519;-88
2022/06/13 13:15:15;;;;;;;5.07;2.23;;;24.10;68.30;;;;;;5078373;28;20452;-89
2022/06/13 13:17:52;;;;;;;5.20;2.60;;;24.30;66.00;;;;;;5078145;28;20467;-88
2022/06/13 13:20:22;;;;;;;7.27;3.03;;;24.40;65.00;;;;;;5078854;28;20409;-88
2022/06/13 13:22:59;;;;;;;4.77;2.50;;;24.30;66.10;;;;;;5078498;28;20756;-88
2022/06/13 13:25:33;;;;;;;5.63;2.83;;;24.40;65.00;;;;;;5079153;28;20514;-88
2022/06/13 13:28:12;;;;;;;6.80;3.07;;;24.10;65.70;;;;;;5083641;28;20548;-88
2022/06/13 13:30:45;;;;;;;4.80;2.70;;;24.00;67.00;;;;;;5081338;28;20440;-88
2022/06/13 13:33:31;;;;;;;4.60;2.63;;;24.00;66.00;;;;;;5079525;28;20455;-89
2022/06/13 13:36:08;;;;;;;5.70;2.83;;;24.00;66.50;;;;;;5080016;28;20988;-89
2022/06/13 13:38:39;;;;;;;6.70;2.20;;;24.10;66.00;;;;;;5079290;28;20531;-88
2022/06/13 13:41:13;;;;;;;10.47;2.90;;;23.80;64.60;;;;;;5085548;28;20448;-88